メインページ
METAR-TAF:

METAR-TAF

空港 :

エルサルバドル, エルサルバドル

エルサルバドル国際空港

緯度: 13-26N, 経度: 089-03W, 海抜: 25m

現時点の気象観測

当レポートは30分前の18:50(UTC)に作成
南/南西の風 9kt、南/南東から西/南西の間で変化する
気温 30°C
湿度 59%
気圧 1013 hPa
視程10km以上
高度6000ftの雲はほとんどない

METAR: MSLP 251850Z 20009KT 160V250 9999 FEW060 30/21 Q1013 A2992 NOSIG

時間: 13:20 (19:20 UTC)

予報

当レポートは3時間55分前の15:25(UTC)に作成
予報は25日の 18時(UTC)から 26日の 18時(UTC)まで有効
南西の風 8kt
視程10km以上
高度6000ftの雲はほとんどない
26日の 0100時(UTC)から
変向風 5kt
視程10km以上
高度6000ftの雲はほとんどない
26日の 0700時(UTC)から
東/北東の風 6kt
視程10km以上
高度7000ftの雲はほとんどない

TAF: MSLP 251525Z 2518/2618 22008KT 9999 FEW060 TX32/2518Z TN23/2612Z FM260100 VRB05KT 9999 FEW060 FM260700 06006KT 9999 FEW070

4,000以上の空港の気象観測と天気予報(METAR報とTAF報)

利用可能な観測所は地図上に黄色い丸と赤い丸で示す。

丸の上にカーソルを重ねると観測所名を参照できる。

次にクリックすると気象観測と天気予報を参照できる。

マップの切り替え:黒色「×」印の緑ボタンをクリックして拡大、「-」印の緑ボタンをクリックして縮小、緑色の三角印をクリックして隣りの地図に切り替え


METAR-TAF: